PENO2: Grand Lake O' The Cherokees, Pensacola Dm

Data processed at Thu Nov 09 2017 15:31


All information presented herein is the property of the government of the United States of America and may be revised or deleted at any time without prior notice.
Dissemination of this information without the expressed written consent of the Public Affairs Office, Tulsa District U.S. Army Corps of Engineers is strictly prohibited.
These data are gathered electronically and, as presented, have not undergone any form of quality control. These data are not guaranteed to be valid or correct.
Go to home page.
Go to station list.

Upstream stations:

Downstream station:
Previous Day
Next Day
Current Day
    
SHEF ID:       PENO2     Lake O' the Cherokees at Langley
STATION TYPE:  RESERVOIR

               PRECIP ELEVATION   STORAGE    INFLOW   RELEASE  AIR-TEMP  WIND-DIRWIND-SPEED REL-HUMID SOLAR-RAD   VOLTAGE  BAT-LOAD
                   in        ft     ac-ft       cfs       cfs         F       deg       mph         %      W/m2      volt      volt
              Ccp-Rev   Ccp-Rev   Ccp-Rev  Regi-Rev  Regi-Rev   Ccp-Rev   Ccp-Rev   Ccp-Rev   Ccp-Rev   Ccp-Rev   Ccp-Rev   Ccp-Rev
(US/Central)
11/08 00:00      0.00    742.01   1393103         0         0     45.66    352.70     12.78     77.83      0.00     13.48     13.13
11/08 01:00      0.00    742.01   1393103         0         0     46.02      0.62     11.75     76.08      0.00     13.51     13.05
11/08 02:00      0.00    742.01   1393103         1         0     46.11      2.59     10.77     75.42      0.00     13.11     12.97
11/08 03:00      0.00    742.01   1393103         2         0     45.64     21.39      7.68     72.96      0.00     12.91     12.65
11/08 04:00      0.00    742.00   1392700         3         0     46.22     10.99      8.85     73.85      0.00     12.87     12.57
11/08 05:00      0.00    742.00   1392700        16         0     45.23    347.22      8.84     79.14      0.00     12.84     12.57
11/08 06:00      0.00    742.01   1393103        16       878     43.54    338.64     10.67     84.40      0.00     12.82     12.57
11/08 07:00      0.00    742.01   1393103        15      4307     42.64    339.23     12.86     87.77      0.00     12.80     12.57
11/08 08:00      0.00    742.01   1393103        14      4418     42.19    347.93     11.55     83.92      6.66     12.78     12.49
11/08 09:00      0.00    742.01   1393103        13      2295     42.01    355.93     10.93     81.52     56.67     12.77     12.49
11/08 10:00      0.00    741.99   1392304         0      2175     43.65      3.56      8.63     78.83    165.82     12.75     12.49
11/08 11:00      0.00    741.96   1391116         0         0     46.08     17.70      6.49     68.14    347.83     12.74     12.41
11/08 12:00      0.00    741.96   1391116         0         0     48.56     11.15      5.87     63.46    392.36     12.72     12.41
11/08 13:00      0.00    741.95   1390720         0         0     50.36     11.68      6.55     55.44    356.99     12.70     12.41
11/08 14:00      0.00    741.93   1389928         1         0     51.85      7.87      5.53     51.70    477.77     12.69     12.41
11/08 15:00      0.00    741.92   1389532         1         0     53.53    359.64      5.96     46.99    392.91     12.67     12.41
11/08 16:00      0.00    741.94   1390324         9         0     54.86    355.95      5.27     43.90    240.93     12.66     12.41
11/08 17:00      0.00    741.95   1390720        16       109     55.17    358.74      6.61     44.13     73.85     12.65     12.41
11/08 18:00      0.00    741.97   1391512        16      2191     54.25    341.76      7.73     48.08      0.00     12.65     12.41
11/08 19:00      0.00    741.95   1390720        15      2180     51.75     31.67      3.26     53.24      0.00     12.64     12.41
11/08 20:00      0.00    741.95   1390720        15         0     47.48     75.90      0.57     67.68      0.00     12.63     12.33
11/08 21:00      0.00    741.95   1390720         8         0     43.95    112.54      1.13     76.10      0.00     12.62     12.33
11/08 22:00      0.00    741.95   1390720         0         0     41.41    151.65      1.71     83.01      0.00     12.61     12.33
11/08 23:00      0.00    741.95   1390720         0         0     40.24    120.32      0.68     88.67      0.00     12.61     12.33